createdAt,value
2022-11-19T00:02:01.838Z,0.60
2022-11-19T00:04:29.897Z,0.85
2022-11-19T00:06:58.587Z,0.68
2022-11-19T00:09:26.840Z,0.88
2022-11-19T00:12:13.359Z,1.00
2022-11-19T00:14:41.330Z,0.70
2022-11-19T00:17:09.299Z,0.70
2022-11-19T00:19:37.206Z,0.73
2022-11-19T00:22:05.075Z,0.73
2022-11-19T00:24:33.030Z,0.90
2022-11-19T00:27:00.898Z,0.50
2022-11-19T00:29:29.206Z,0.63
2022-11-19T00:31:57.227Z,0.93
2022-11-19T00:34:25.063Z,0.50
2022-11-19T00:36:53.084Z,1.00
2022-11-19T00:39:22.113Z,0.80
2022-11-19T00:41:50.115Z,0.73
2022-11-19T00:44:18.273Z,0.90
2022-11-19T00:46:46.318Z,0.95
2022-11-19T00:49:14.322Z,1.02
2022-11-19T00:51:42.320Z,0.90
2022-11-19T00:54:10.207Z,0.82
2022-11-19T00:56:38.174Z,0.68
2022-11-19T00:59:06.060Z,0.70
2022-11-19T01:01:33.952Z,0.80
2022-11-19T01:04:01.891Z,0.63
2022-11-19T01:06:29.687Z,1.13
2022-11-19T01:08:58.264Z,0.90
2022-11-19T01:11:29.739Z,0.60
2022-11-19T01:13:58.985Z,0.70
2022-11-19T01:16:29.827Z,0.70
2022-11-19T01:18:58.490Z,0.90
2022-11-19T01:21:30.098Z,0.65
2022-11-19T01:23:59.047Z,0.60
2022-11-19T01:26:28.006Z,0.65
2022-11-19T01:28:56.378Z,0.73
2022-11-19T01:31:29.451Z,0.60
2022-11-19T01:33:58.209Z,0.67
2022-11-19T01:36:28.580Z,0.80
2022-11-19T01:38:57.129Z,0.70
2022-11-19T01:41:30.901Z,0.80
2022-11-19T01:44:04.573Z,0.52
2022-11-19T01:46:38.039Z,0.68
2022-11-19T01:49:17.716Z,0.90
2022-11-19T01:52:02.792Z,0.60
2022-11-19T01:54:41.390Z,0.60
2022-11-19T01:57:13.356Z,0.80
2022-11-19T01:59:43.519Z,0.85
2022-11-19T02:02:11.455Z,0.80
2022-11-19T02:04:39.961Z,0.88
2022-11-19T02:07:09.887Z,0.82
2022-11-19T02:09:39.355Z,0.90
2022-11-19T02:12:15.377Z,0.90
2022-11-19T02:15:06.267Z,0.75
2022-11-19T02:17:52.066Z,1.05
2022-11-19T02:20:43.756Z,0.88
2022-11-19T02:23:46.579Z,0.70
2022-11-19T02:26:46.303Z,0.70
2022-11-19T02:29:32.166Z,0.90
2022-11-19T02:32:16.146Z,0.88
2022-11-19T02:35:05.889Z,0.73
2022-11-19T02:37:51.018Z,0.95
2022-11-19T02:40:47.986Z,0.93
2022-11-19T02:43:21.478Z,0.88
2022-11-19T02:46:15.830Z,0.88
2022-11-19T02:48:50.090Z,0.68
2022-11-19T02:51:18.944Z,0.52
2022-11-19T02:53:49.797Z,0.68
2022-11-19T02:56:55.511Z,0.55
2022-11-19T02:59:48.631Z,1.17
2022-11-19T03:02:37.399Z,0.55
2022-11-19T03:05:10.991Z,0.90
2022-11-19T03:07:39.202Z,0.57
2022-11-19T03:10:10.497Z,1.00
2022-11-19T03:12:40.994Z,0.50
2022-11-19T03:15:27.235Z,0.90
2022-11-19T03:18:13.660Z,0.63
2022-11-19T03:20:48.419Z,1.10
2022-11-19T03:23:29.497Z,1.00
2022-11-19T03:26:06.444Z,0.82
2022-11-19T03:28:38.148Z,0.63
2022-11-19T03:31:07.789Z,0.75
2022-11-19T03:33:42.134Z,0.70
2022-11-19T03:36:17.130Z,0.85
2022-11-19T03:38:49.901Z,0.88
2022-11-19T03:41:20.310Z,0.70
2022-11-19T03:44:00.679Z,0.90
2022-11-19T03:46:30.638Z,0.50
2022-11-19T03:49:00.689Z,1.10
2022-11-19T03:51:47.885Z,0.60
2022-11-19T03:54:16.614Z,0.55
2022-11-19T03:56:46.568Z,0.50
2022-11-19T03:59:14.908Z,0.80
2022-11-19T04:01:46.847Z,0.85
2022-11-19T04:04:33.134Z,0.70
2022-11-19T04:07:01.187Z,0.60
2022-11-19T04:09:29.098Z,0.80
2022-11-19T04:11:56.941Z,0.60
2022-11-19T04:14:25.016Z,0.70
2022-11-19T04:16:52.969Z,0.63
2022-11-19T04:19:21.606Z,0.70
2022-11-19T04:21:49.827Z,0.70
2022-11-19T04:24:17.850Z,0.80
2022-11-19T04:26:46.572Z,0.40
2022-11-19T04:29:14.583Z,0.55
2022-11-19T04:31:42.458Z,0.77
2022-11-19T04:34:10.571Z,0.80
2022-11-19T04:36:41.746Z,0.57
2022-11-19T04:39:12.508Z,0.90
2022-11-19T04:41:41.241Z,0.68
2022-11-19T04:44:09.308Z,0.47
2022-11-19T04:46:37.200Z,0.60
2022-11-19T04:49:05.111Z,0.88
2022-11-19T04:51:33.195Z,0.50
2022-11-19T04:54:01.257Z,0.88
2022-11-19T04:56:29.166Z,0.60
2022-11-19T04:58:57.091Z,0.75
2022-11-19T05:01:25.041Z,0.60
2022-11-19T05:03:53.106Z,0.70
2022-11-19T05:06:20.953Z,0.52
2022-11-19T05:08:48.647Z,0.80
2022-11-19T05:11:16.565Z,0.60
2022-11-19T05:13:44.568Z,0.80
2022-11-19T05:16:12.710Z,0.70
2022-11-19T05:18:40.728Z,0.88
2022-11-19T05:21:08.581Z,0.75
2022-11-19T05:23:36.330Z,0.85
2022-11-19T05:26:04.459Z,0.88
2022-11-19T05:28:38.948Z,0.95
2022-11-19T05:31:08.271Z,0.63
2022-11-19T05:33:36.569Z,0.60
2022-11-19T05:36:04.904Z,0.70
2022-11-19T05:38:33.234Z,0.80
2022-11-19T05:41:01.222Z,0.60
2022-11-19T05:43:29.320Z,0.77
2022-11-19T05:46:00.943Z,0.55
2022-11-19T05:48:30.105Z,0.60
2022-11-19T05:50:58.053Z,0.60
2022-11-19T05:53:26.643Z,0.50
2022-11-19T05:55:54.552Z,0.60
2022-11-19T05:58:22.580Z,0.85
2022-11-19T06:00:54.874Z,0.70
2022-11-19T06:03:22.940Z,0.82
2022-11-19T06:05:51.554Z,0.70
2022-11-19T06:08:19.588Z,0.90
2022-11-19T06:10:47.570Z,0.80
2022-11-19T06:13:15.660Z,0.80
2022-11-19T06:15:43.632Z,0.90
2022-11-19T06:18:11.704Z,0.40
2022-11-19T06:20:39.729Z,0.90
2022-11-19T06:23:08.287Z,0.57
2022-11-19T06:25:36.231Z,0.40
2022-11-19T06:28:04.332Z,0.63
2022-11-19T06:30:32.400Z,0.57
2022-11-19T06:33:00.452Z,0.80
2022-11-19T06:35:28.514Z,0.70
2022-11-19T06:37:56.540Z,0.70
2022-11-19T06:40:24.576Z,0.60
2022-11-19T06:42:52.616Z,0.60
2022-11-19T06:45:20.705Z,1.00
2022-11-19T06:47:49.624Z,0.95
2022-11-19T06:50:18.278Z,1.00
2022-11-19T06:52:46.407Z,0.73
2022-11-19T06:55:14.557Z,0.70
2022-11-19T06:57:42.707Z,0.75
2022-11-19T07:00:12.860Z,0.75
2022-11-19T07:02:41.299Z,1.02
2022-11-19T07:05:09.658Z,0.88
2022-11-19T07:07:37.726Z,0.88
2022-11-19T07:10:07.377Z,0.60
2022-11-19T07:12:35.424Z,0.65
2022-11-19T07:15:04.710Z,0.90
2022-11-19T07:17:33.277Z,0.65
2022-11-19T07:20:01.413Z,0.75
2022-11-19T07:22:29.546Z,1.05
2022-11-19T07:24:57.824Z,0.85
2022-11-19T07:27:25.854Z,0.98
2022-11-19T07:29:53.787Z,0.85
2022-11-19T07:32:21.820Z,0.80
2022-11-19T07:34:49.760Z,0.90
2022-11-19T07:37:18.681Z,0.82
2022-11-19T07:39:47.137Z,1.00
2022-11-19T07:42:33.500Z,0.80
2022-11-19T07:45:09.953Z,0.77
2022-11-19T07:47:37.994Z,0.93
2022-11-19T07:50:06.522Z,0.75
2022-11-19T07:52:34.522Z,0.75
2022-11-19T07:55:04.275Z,0.80
2022-11-19T07:57:32.352Z,0.95
2022-11-19T08:00:00.359Z,0.80
2022-11-19T08:02:28.497Z,0.95
2022-11-19T08:04:56.311Z,0.90
2022-11-19T08:07:24.401Z,0.90
2022-11-19T08:09:52.401Z,0.77
2022-11-19T08:12:20.413Z,1.00
2022-11-19T08:14:48.324Z,0.68
2022-11-19T08:17:34.744Z,0.80
2022-11-19T08:20:02.563Z,1.20
2022-11-19T08:22:30.789Z,1.05
2022-11-19T08:24:58.550Z,1.08
2022-11-19T08:27:26.807Z,1.15
2022-11-19T08:29:54.932Z,1.05
2022-11-19T08:32:23.381Z,0.85
2022-11-19T08:34:52.561Z,1.23
2022-11-19T08:37:20.520Z,1.20
2022-11-19T08:39:48.352Z,0.98
2022-11-19T08:42:34.838Z,0.73
2022-11-19T08:45:02.862Z,0.98
2022-11-19T08:47:30.800Z,1.00
2022-11-19T08:49:58.797Z,1.40
2022-11-19T08:52:26.904Z,0.90
2022-11-19T08:54:55.133Z,1.08
2022-11-19T08:57:23.335Z,1.02
2022-11-19T08:59:52.250Z,1.10
2022-11-19T09:02:20.333Z,1.38
2022-11-19T09:04:48.817Z,1.15
2022-11-19T09:07:16.799Z,1.08
2022-11-19T09:09:44.749Z,0.93
2022-11-19T09:12:12.732Z,1.10
2022-11-19T09:14:40.730Z,1.10
2022-11-19T09:17:08.730Z,1.30
2022-11-19T09:19:36.608Z,1.38
2022-11-19T09:22:04.587Z,1.15
2022-11-19T09:24:32.601Z,1.10
2022-11-19T09:27:02.652Z,1.23
2022-11-19T09:29:30.716Z,1.20
2022-11-19T09:31:58.950Z,1.40
2022-11-19T09:34:26.964Z,1.38
2022-11-19T09:36:54.988Z,1.38
2022-11-19T09:39:22.929Z,1.45
2022-11-19T09:42:03.884Z,1.42
2022-11-19T09:44:50.358Z,1.38
2022-11-19T09:47:24.263Z,1.33
2022-11-19T09:50:23.472Z,1.30
2022-11-19T09:53:07.399Z,1.33
2022-11-19T09:55:42.735Z,1.45
2022-11-19T09:58:22.323Z,1.40
2022-11-19T10:00:50.409Z,1.48
2022-11-19T10:03:22.883Z,1.52
2022-11-19T10:06:01.353Z,1.58
2022-11-19T10:09:05.283Z,1.45
2022-11-19T10:12:10.791Z,1.13
2022-11-19T10:14:50.209Z,1.42
2022-11-19T10:17:18.240Z,1.60
2022-11-19T10:19:52.223Z,1.60
2022-11-19T10:22:39.994Z,1.33
2022-11-19T10:25:21.416Z,1.48
2022-11-19T10:27:53.730Z,1.50
2022-11-19T10:30:25.226Z,1.58
2022-11-19T10:32:58.572Z,1.50
2022-11-19T10:35:34.243Z,1.80
2022-11-19T10:38:05.720Z,1.27
2022-11-19T10:40:44.057Z,1.42
2022-11-19T10:44:00.135Z,1.42
2022-11-19T10:46:29.327Z,1.63
2022-11-19T10:48:59.387Z,1.65
2022-11-19T10:51:56.309Z,1.70
2022-11-19T10:54:28.937Z,1.95
2022-11-19T10:56:58.205Z,1.70
2022-11-19T10:59:29.265Z,1.52
2022-11-19T11:02:02.841Z,1.40
2022-11-19T11:04:31.206Z,1.50
2022-11-19T11:07:01.863Z,1.85
2022-11-19T11:09:39.653Z,1.75
2022-11-19T11:12:44.432Z,1.92
2022-11-19T11:18:09.426Z,1.77
2022-11-19T11:20:39.636Z,1.70
2022-11-19T11:23:31.209Z,1.70
2022-11-19T11:26:12.493Z,1.52
2022-11-19T11:29:01.744Z,2.08
2022-11-19T11:31:35.647Z,1.75
2022-11-19T11:36:37.196Z,1.95
2022-11-19T11:39:06.823Z,1.90
2022-11-19T11:42:05.472Z,1.75
2022-11-19T11:44:33.469Z,1.73
2022-11-19T11:47:32.827Z,1.90
2022-11-19T11:50:22.296Z,1.80
2022-11-19T11:52:54.184Z,1.60
2022-11-19T11:55:24.775Z,1.92
2022-11-19T11:58:00.658Z,1.75
2022-11-19T12:00:36.515Z,1.90
2022-11-19T12:03:19.245Z,1.90
2022-11-19T12:05:56.520Z,1.77
2022-11-19T12:08:56.940Z,1.70
2022-11-19T12:11:50.179Z,1.90
2022-11-19T12:14:27.642Z,1.98
2022-11-19T12:17:18.357Z,1.92
2022-11-19T12:19:49.187Z,2.08
2022-11-19T12:22:44.799Z,1.98
2022-11-19T12:25:12.920Z,2.00
2022-11-19T12:28:01.749Z,2.20
2022-11-19T12:30:55.111Z,1.83
2022-11-19T12:33:53.449Z,1.55
2022-11-19T12:36:33.554Z,2.10
2022-11-19T12:39:38.590Z,2.20
2022-11-19T12:42:40.557Z,1.90
2022-11-19T12:45:23.635Z,2.03
2022-11-19T12:48:10.322Z,1.67
2022-11-19T12:51:06.389Z,2.08
2022-11-19T12:53:40.868Z,2.10
2022-11-19T12:56:48.801Z,2.05
2022-11-19T12:59:34.169Z,1.92
2022-11-19T13:02:08.129Z,1.95
2022-11-19T13:04:43.716Z,2.30
2022-11-19T13:07:23.294Z,1.88
2022-11-19T13:10:02.185Z,2.00
2022-11-19T13:12:41.616Z,2.20
2022-11-19T13:15:21.371Z,2.20
2022-11-19T13:17:53.981Z,2.00
2022-11-19T13:20:25.906Z,2.13
2022-11-19T13:22:58.910Z,2.40
2022-11-19T13:25:35.837Z,2.03
2022-11-19T13:28:13.634Z,2.20
2022-11-19T13:30:45.805Z,2.30
2022-11-19T13:33:26.701Z,2.05
2022-11-19T13:36:12.408Z,2.13
2022-11-19T13:38:53.385Z,2.20
2022-11-19T13:41:25.321Z,2.30
2022-11-19T13:44:14.934Z,2.20
2022-11-19T13:46:45.566Z,2.40
2022-11-19T13:49:23.362Z,1.95
2022-11-19T13:52:00.136Z,2.33
2022-11-19T13:54:34.493Z,2.15
2022-11-19T13:57:04.701Z,2.08
2022-11-19T13:59:44.531Z,2.20
2022-11-19T14:02:41.114Z,2.40
2022-11-19T14:05:41.254Z,2.20
2022-11-19T14:08:40.239Z,2.38
2022-11-19T14:11:20.132Z,2.33
2022-11-19T14:14:35.818Z,2.28
2022-11-19T14:18:03.997Z,2.20
2022-11-19T14:20:59.842Z,2.10
2022-11-19T14:24:02.620Z,2.35
2022-11-19T14:27:00.645Z,2.50
2022-11-19T14:29:34.723Z,2.20
2022-11-19T14:32:06.400Z,2.42
2022-11-19T14:35:03.206Z,2.40
2022-11-19T14:37:37.620Z,2.63
2022-11-19T14:40:17.190Z,2.42
2022-11-19T14:43:38.481Z,2.15
2022-11-19T14:46:24.799Z,2.58
2022-11-19T14:48:56.861Z,2.38
2022-11-19T14:51:40.405Z,2.33
2022-11-19T14:54:20.698Z,2.50
2022-11-19T14:56:59.674Z,2.47
2022-11-19T14:59:31.495Z,2.38
2022-11-19T15:02:05.380Z,2.50
2022-11-19T15:07:25.602Z,2.33
2022-11-19T15:10:11.936Z,2.20
2022-11-19T15:12:46.488Z,2.40
2022-11-19T15:15:20.413Z,2.70
2022-11-19T15:18:35.085Z,2.47
2022-11-19T15:21:43.143Z,2.47
2022-11-19T15:24:39.940Z,2.53
2022-11-19T15:27:36.354Z,2.40
2022-11-19T15:30:07.538Z,2.40
2022-11-19T15:32:53.088Z,2.40
2022-11-19T15:36:04.732Z,2.40
2022-11-19T15:38:49.006Z,2.40
2022-11-19T15:43:58.810Z,2.38
2022-11-19T15:46:32.384Z,2.42
2022-11-19T15:49:29.439Z,2.53
2022-11-19T15:52:03.732Z,2.75
2022-11-19T15:54:34.631Z,2.72
2022-11-19T15:57:17.701Z,2.70
2022-11-19T15:59:50.767Z,2.70
2022-11-19T16:02:24.653Z,2.65
2022-11-19T16:04:52.799Z,2.60
2022-11-19T16:07:28.221Z,2.60
2022-11-19T16:09:58.233Z,2.42
2022-11-19T16:12:47.201Z,2.60
2022-11-19T16:15:38.014Z,2.53
2022-11-19T16:18:16.688Z,2.60
2022-11-19T16:20:50.394Z,2.50
2022-11-19T16:25:48.815Z,2.67
2022-11-19T16:28:22.893Z,2.63
2022-11-19T16:31:00.717Z,2.55
2022-11-19T16:33:30.863Z,2.60
2022-11-19T16:36:18.774Z,2.70
2022-11-19T16:38:49.029Z,2.50
2022-11-19T16:41:38.315Z,2.50
2022-11-19T16:44:14.075Z,2.45
2022-11-19T16:46:42.987Z,2.90
2022-11-19T16:49:30.229Z,2.80
2022-11-19T16:51:58.606Z,2.70
2022-11-19T16:54:46.441Z,2.63
2022-11-19T16:57:19.146Z,2.50
2022-11-19T17:00:15.369Z,2.60
2022-11-19T17:02:44.001Z,2.60
2022-11-19T17:05:19.352Z,2.42
2022-11-19T17:07:52.082Z,2.60
2022-11-19T17:10:24.116Z,2.75
2022-11-19T17:12:55.348Z,2.58
2022-11-19T17:15:38.745Z,2.70
2022-11-19T17:18:19.905Z,2.90
2022-11-19T17:20:47.822Z,2.80
2022-11-19T17:23:24.273Z,2.80
2022-11-19T17:26:02.588Z,2.90
2022-11-19T17:28:36.123Z,2.60
2022-11-19T17:31:16.036Z,2.70
2022-11-19T17:33:49.641Z,3.00
2022-11-19T17:36:17.924Z,2.83
2022-11-19T17:38:46.325Z,3.00
2022-11-19T17:41:37.107Z,2.65
2022-11-19T17:44:29.623Z,2.85
2022-11-19T17:46:58.889Z,2.78
2022-11-19T17:49:26.786Z,2.63
2022-11-19T17:51:55.642Z,3.10
2022-11-19T17:54:24.134Z,2.80
2022-11-19T17:56:52.481Z,2.90
2022-11-19T17:59:20.329Z,2.78
2022-11-19T18:01:48.477Z,3.30
2022-11-19T18:04:16.898Z,2.78
2022-11-19T18:06:45.653Z,2.70
2022-11-19T18:09:13.644Z,3.08
2022-11-19T18:11:41.642Z,2.65
2022-11-19T18:14:12.987Z,2.90
2022-11-19T18:16:42.761Z,3.00
2022-11-19T18:19:24.271Z,2.85
2022-11-19T18:21:53.654Z,2.70
2022-11-19T18:24:22.567Z,3.00
2022-11-19T18:26:50.759Z,2.80
2022-11-19T18:29:19.191Z,2.90
2022-11-19T18:31:51.064Z,2.78
2022-11-19T18:34:22.256Z,2.90
2022-11-19T18:36:50.957Z,3.00
2022-11-19T18:39:19.798Z,2.80
2022-11-19T18:41:48.590Z,2.60
2022-11-19T18:44:36.218Z,3.00
2022-11-19T18:47:07.627Z,3.10
2022-11-19T18:49:36.102Z,2.83
2022-11-19T18:52:06.036Z,3.03
2022-11-19T18:54:34.153Z,2.85
2022-11-19T18:57:02.560Z,2.50
2022-11-19T18:59:30.501Z,2.70
2022-11-19T19:01:58.645Z,2.70
2022-11-19T19:04:26.642Z,2.90
2022-11-19T19:06:55.225Z,3.00
2022-11-19T19:09:23.401Z,2.63
2022-11-19T19:12:13.455Z,2.92
2022-11-19T19:14:42.917Z,2.95
2022-11-19T19:17:12.395Z,2.85
2022-11-19T19:19:42.070Z,3.20
2022-11-19T19:22:10.043Z,2.65
2022-11-19T19:24:38.168Z,2.90
2022-11-19T19:27:06.267Z,2.88
2022-11-19T19:29:34.280Z,2.70
2022-11-19T19:32:02.439Z,2.85
2022-11-19T19:34:30.799Z,3.00
2022-11-19T19:36:58.827Z,2.85
2022-11-19T19:39:26.963Z,3.13
2022-11-19T19:41:55.089Z,2.97
2022-11-19T19:44:23.025Z,2.65
2022-11-19T19:46:51.347Z,3.08
2022-11-19T19:49:20.084Z,2.97
2022-11-19T19:51:48.429Z,3.00
2022-11-19T19:54:19.097Z,2.90
2022-11-19T19:56:47.250Z,2.90
2022-11-19T19:59:15.563Z,3.10
2022-11-19T20:01:47.627Z,3.03
2022-11-19T20:04:15.768Z,3.10
2022-11-19T20:06:47.891Z,2.67
2022-11-19T20:09:16.058Z,3.00
2022-11-19T20:11:44.196Z,2.75
2022-11-19T20:14:12.479Z,3.35
2022-11-19T20:16:41.815Z,2.88
2022-11-19T20:19:14.362Z,2.85
2022-11-19T20:21:43.033Z,2.90
2022-11-19T20:24:13.622Z,2.80
2022-11-19T20:26:42.801Z,2.80
2022-11-19T20:29:13.781Z,2.85
2022-11-19T20:31:46.156Z,3.08
2022-11-19T20:34:14.925Z,2.92
2022-11-19T20:36:44.317Z,2.88
2022-11-19T20:39:12.935Z,2.88
2022-11-19T20:41:59.265Z,2.75
2022-11-19T20:44:27.356Z,2.95
2022-11-19T20:46:56.397Z,2.90
2022-11-19T20:49:30.204Z,3.20
2022-11-19T20:51:58.599Z,3.17
2022-11-19T20:54:27.695Z,2.80
2022-11-19T20:56:56.962Z,3.08
2022-11-19T20:59:26.339Z,2.92
2022-11-19T21:01:56.187Z,2.97
2022-11-19T21:04:25.769Z,3.20
2022-11-19T21:06:56.430Z,2.90
2022-11-19T21:09:25.328Z,2.95
2022-11-19T21:11:53.783Z,2.60
2022-11-19T21:14:21.848Z,3.17
2022-11-19T21:16:49.982Z,3.10
2022-11-19T21:19:18.084Z,3.00
2022-11-19T21:21:46.282Z,2.92
2022-11-19T21:24:14.574Z,2.92
2022-11-19T21:26:42.540Z,3.10
2022-11-19T21:29:10.809Z,3.35
2022-11-19T21:31:39.426Z,2.80
2022-11-19T21:34:11.050Z,2.90
2022-11-19T21:36:40.453Z,2.88
2022-11-19T21:39:09.259Z,2.95
2022-11-19T21:41:37.931Z,2.95
2022-11-19T21:44:06.600Z,3.00
2022-11-19T21:46:35.393Z,3.05
2022-11-19T21:49:04.097Z,2.83
2022-11-19T21:51:32.108Z,3.03
2022-11-19T21:54:00.203Z,2.95
2022-11-19T21:56:35.318Z,2.90
2022-11-19T21:59:07.282Z,3.10
2022-11-19T22:01:35.787Z,3.15
2022-11-19T22:04:04.154Z,3.00
2022-11-19T22:06:32.634Z,3.13
2022-11-19T22:09:00.733Z,3.22
2022-11-19T22:11:28.821Z,3.28
2022-11-19T22:14:05.996Z,3.00
2022-11-19T22:16:37.257Z,3.00
2022-11-19T22:19:08.521Z,3.28
2022-11-19T22:21:36.554Z,2.85
2022-11-19T22:24:05.167Z,3.10
2022-11-19T22:26:33.248Z,2.92
2022-11-19T22:29:02.659Z,3.08
2022-11-19T22:31:30.863Z,3.20
2022-11-19T22:34:00.232Z,3.13
2022-11-19T22:36:31.554Z,3.10
2022-11-19T22:39:00.249Z,3.00
2022-11-19T22:41:28.361Z,2.65
2022-11-19T22:43:56.370Z,3.25
2022-11-19T22:46:24.331Z,3.03
2022-11-19T22:48:52.444Z,2.83
2022-11-19T22:51:25.248Z,2.97
2022-11-19T22:53:54.360Z,3.20
2022-11-19T22:56:27.763Z,3.20
2022-11-19T22:58:56.479Z,2.80
2022-11-19T23:01:30.291Z,3.03
2022-11-19T23:04:01.735Z,3.08
2022-11-19T23:06:36.618Z,3.10
2022-11-19T23:09:06.656Z,2.88
2022-11-19T23:11:53.344Z,3.20
2022-11-19T23:14:21.283Z,3.15
2022-11-19T23:16:49.198Z,2.97
2022-11-19T23:19:19.535Z,2.95
2022-11-19T23:21:48.375Z,3.10
2022-11-19T23:24:16.125Z,3.10
2022-11-19T23:26:43.986Z,3.25
2022-11-19T23:29:11.900Z,2.80
2022-11-19T23:31:40.338Z,3.08
2022-11-19T23:34:08.391Z,3.15
2022-11-19T23:36:39.290Z,3.03
2022-11-19T23:39:10.394Z,2.88
2022-11-19T23:41:38.296Z,3.30
2022-11-19T23:44:06.359Z,3.05
2022-11-19T23:46:35.914Z,2.97
2022-11-19T23:49:05.628Z,3.08
2022-11-19T23:51:36.491Z,3.10
2022-11-19T23:54:05.473Z,2.92
2022-11-19T23:56:34.572Z,3.10
2022-11-19T23:59:03.954Z,2.75
